Time;durP1;ratioP1;P1;durP2;ratioP2;P2;SDS_P1;SDS_P2;PMS_P1;PMS_P2;Temp;Humidity;BMP_temperature;BMP_pressure;BME280_temperature;BME280_humidity;BME280_pressure;Samples;Min_cycle;Max_cycle;Signal;HPM_P1;HPM_P2
2021/08/26 00:01:18;;;;;;;11.97;9.60;;;13.80;99.90;;;;;;5098008;28;20422;-46
2021/08/26 00:06:28;;;;;;;11.87;9.50;;;13.80;99.90;;;;;;5098332;28;20433;-46
2021/08/26 00:08:54;;;;;;;10.93;9.83;;;13.80;99.90;;;;;;5097614;28;20829;-46
2021/08/26 00:11:25;;;;;;;11.70;9.60;;;13.80;99.90;;;;;;5098676;28;20470;-46
2021/08/26 00:13:52;;;;;;;13.10;9.87;;;13.80;99.90;;;;;;5098519;28;20172;-46
2021/08/26 00:16:20;;;;;;;10.63;8.90;;;13.90;99.90;;;;;;5098574;28;20433;-46
2021/08/26 00:18:46;;;;;;;11.40;9.02;;;13.90;99.90;;;;;;5097443;28;20427;-46
2021/08/26 00:21:12;;;;;;;10.30;9.20;;;13.90;99.90;;;;;;5098469;28;20274;-46
2021/08/26 00:23:37;;;;;;;10.40;9.20;;;13.90;99.90;;;;;;5098105;28;20428;-46
2021/08/26 00:26:03;;;;;;;12.07;9.43;;;13.90;99.90;;;;;;5098527;28;20422;-46
2021/08/26 00:28:29;;;;;;;10.80;9.00;;;13.90;99.90;;;;;;5098128;28;20555;-46
2021/08/26 00:30:55;;;;;;;11.27;10.07;;;13.90;99.90;;;;;;5097756;28;20561;-47
2021/08/26 00:33:22;;;;;;;12.17;9.50;;;13.90;99.90;;;;;;5097750;28;20544;-47
2021/08/26 00:35:48;;;;;;;12.30;9.73;;;13.80;99.90;;;;;;5096893;28;20411;-47
2021/08/26 00:38:14;;;;;;;11.23;9.60;;;13.80;99.90;;;;;;5098032;28;20184;-47
2021/08/26 00:40:40;;;;;;;13.67;10.33;;;13.80;99.90;;;;;;5098166;28;20498;-47
2021/08/26 00:43:06;;;;;;;10.80;9.07;;;13.70;99.90;;;;;;5097749;28;20289;-47
2021/08/26 00:45:33;;;;;;;11.87;9.70;;;13.70;99.90;;;;;;5098276;28;20233;-46
2021/08/26 00:47:59;;;;;;;10.57;9.43;;;13.70;99.90;;;;;;5098347;28;20472;-46
2021/08/26 00:50:25;;;;;;;11.40;9.05;;;13.60;99.90;;;;;;5098027;28;20434;-46
2021/08/26 00:52:53;;;;;;;13.10;9.60;;;13.50;99.90;;;;;;5098037;28;20184;-47
2021/08/26 00:55:19;;;;;;;9.83;8.83;;;13.50;99.90;;;;;;5097792;28;20835;-47
2021/08/26 00:57:44;;;;;;;11.80;10.17;;;13.50;99.90;;;;;;5097805;28;20442;-47
2021/08/26 01:00:11;;;;;;;10.40;9.40;;;13.40;99.90;;;;;;5097723;28;20796;-46
2021/08/26 01:02:46;;;;;;;9.88;8.82;;;13.40;99.90;;;;;;5096624;28;20184;-47
2021/08/26 01:05:22;;;;;;;10.83;9.03;;;13.40;99.90;;;;;;5097212;28;20262;-47
2021/08/26 01:07:54;;;;;;;12.07;10.10;;;13.30;99.90;;;;;;5098937;28;20438;-46
2021/08/26 01:10:22;;;;;;;10.87;9.63;;;13.30;99.90;;;;;;5097898;28;20472;-46
2021/08/26 01:12:52;;;;;;;11.90;9.47;;;13.20;99.90;;;;;;5097311;28;20484;-47
2021/08/26 01:15:18;;;;;;;12.07;10.30;;;13.20;99.90;;;;;;5098944;28;20708;-47
2021/08/26 01:17:45;;;;;;;12.57;10.53;;;13.20;99.90;;;;;;5101486;28;20434;-47
2021/08/26 01:20:11;;;;;;;11.57;10.30;;;13.10;99.90;;;;;;5101187;28;20600;-46
2021/08/26 01:22:37;;;;;;;10.00;9.00;;;13.10;99.90;;;;;;5101800;28;20434;-47
2021/08/26 01:25:12;;;;;;;10.88;9.70;;;13.00;99.90;;;;;;5101598;28;20183;-47
2021/08/26 01:27:50;;;;;;;10.30;9.20;;;13.00;99.90;;;;;;5101469;28;20192;-47
2021/08/26 01:30:19;;;;;;;11.50;9.87;;;12.90;99.90;;;;;;5101808;28;20492;-46
2021/08/26 01:32:48;;;;;;;10.77;9.67;;;12.90;99.90;;;;;;5101468;28;20480;-47
2021/08/26 01:35:13;;;;;;;12.20;10.90;;;12.90;99.90;;;;;;5100109;28;20414;-47
2021/08/26 01:37:40;;;;;;;12.70;9.60;;;12.90;99.90;;;;;;5101451;28;20487;-46
2021/08/26 01:40:07;;;;;;;12.97;9.87;;;12.80;99.90;;;;;;5101415;28;20887;-46
2021/08/26 01:42:33;;;;;;;12.13;9.87;;;12.80;99.90;;;;;;5101247;28;20422;-46
2021/08/26 01:44:59;;;;;;;12.37;9.80;;;12.80;99.90;;;;;;5100150;28;20414;-46
2021/08/26 01:47:25;;;;;;;11.23;9.53;;;12.80;99.90;;;;;;5100931;28;20788;-47
2021/08/26 01:49:52;;;;;;;11.90;9.80;;;12.80;99.90;;;;;;5101214;28;20418;-47
2021/08/26 01:52:23;;;;;;;12.80;9.97;;;12.70;99.90;;;;;;5100856;28;20536;-46
2021/08/26 01:54:53;;;;;;;10.33;9.20;;;12.70;99.90;;;;;;5100772;28;20414;-47
2021/08/26 01:57:24;;;;;;;11.50;9.57;;;12.70;99.90;;;;;;5101026;28;20422;-47
2021/08/26 01:59:50;;;;;;;14.53;10.60;;;12.60;99.90;;;;;;5101128;28;20410;-47
2021/08/26 02:02:15;;;;;;;13.10;9.90;;;12.60;99.90;;;;;;5100587;28;20494;-46
2021/08/26 02:04:42;;;;;;;11.27;10.13;;;12.50;99.90;;;;;;5101046;28;20271;-47
2021/08/26 02:07:08;;;;;;;11.37;10.17;;;12.50;99.90;;;;;;5100409;28;20426;-47
2021/08/26 02:09:34;;;;;;;9.43;8.50;;;12.50;99.90;;;;;;5100004;28;20428;-47
2021/08/26 02:12:00;;;;;;;11.32;10.13;;;12.50;99.90;;;;;;5100510;28;20208;-47
2021/08/26 02:14:26;;;;;;;11.05;9.60;;;12.50;99.90;;;;;;5100352;28;20177;-47
2021/08/26 02:16:52;;;;;;;11.63;10.03;;;12.40;99.90;;;;;;5100197;28;20257;-46
2021/08/26 02:19:18;;;;;;;12.60;10.10;;;12.40;99.90;;;;;;5100390;28;20263;-47
2021/08/26 02:21:43;;;;;;;10.40;8.97;;;12.40;99.90;;;;;;5100118;28;20854;-46
2021/08/26 02:24:09;;;;;;;11.40;10.23;;;12.30;99.90;;;;;;5100522;28;20184;-46
2021/08/26 02:26:35;;;;;;;11.60;10.43;;;12.30;99.90;;;;;;5098296;28;20164;-47
2021/08/26 02:29:01;;;;;;;11.23;10.07;;;12.30;99.90;;;;;;5100074;28;20809;-47
2021/08/26 02:31:27;;;;;;;13.20;10.90;;;12.30;99.90;;;;;;5100123;28;20548;-46
2021/08/26 02:33:53;;;;;;;11.18;9.32;;;12.20;99.90;;;;;;5100223;28;20196;-47
2021/08/26 02:36:19;;;;;;;12.17;10.87;;;12.20;99.90;;;;;;5100466;28;20172;-47
2021/08/26 02:38:45;;;;;;;11.93;10.10;;;12.20;99.90;;;;;;5099900;28;20427;-46
2021/08/26 02:41:11;;;;;;;14.60;9.97;;;12.10;99.90;;;;;;5099996;28;20406;-46
2021/08/26 02:43:36;;;;;;;11.60;9.33;;;12.10;99.90;;;;;;5100447;28;20189;-47
2021/08/26 02:46:02;;;;;;;10.63;9.57;;;12.10;99.90;;;;;;5099757;28;20176;-46
2021/08/26 02:48:28;;;;;;;9.70;8.70;;;12.10;99.90;;;;;;5099775;28;20237;-47
2021/08/26 02:50:54;;;;;;;12.97;10.70;;;12.00;99.90;;;;;;5098638;28;20706;-46
2021/08/26 02:53:20;;;;;;;12.93;10.03;;;12.00;99.90;;;;;;5100043;28;20229;-47
2021/08/26 02:55:45;;;;;;;12.83;10.33;;;12.00;99.90;;;;;;5099023;28;20172;-47
2021/08/26 02:58:11;;;;;;;11.55;10.27;;;12.00;99.90;;;;;;5099998;28;20430;-46
2021/08/26 03:00:37;;;;;;;11.13;9.90;;;11.90;99.90;;;;;;5099725;28;20450;-46
2021/08/26 03:03:03;;;;;;;11.93;9.77;;;11.90;99.90;;;;;;5099596;28;20471;-46
2021/08/26 03:05:29;;;;;;;10.83;9.73;;;11.80;99.90;;;;;;5099393;28;20255;-47
2021/08/26 03:07:56;;;;;;;11.45;9.70;;;11.80;99.90;;;;;;5099420;28;20444;-46
2021/08/26 03:10:23;;;;;;;11.53;9.97;;;11.80;99.90;;;;;;5098276;28;20172;-46
2021/08/26 03:12:48;;;;;;;13.60;10.90;;;11.70;99.90;;;;;;5099115;28;20470;-46
2021/08/26 03:15:14;;;;;;;11.10;9.33;;;11.70;99.90;;;;;;5098731;28;20421;-46
2021/08/26 03:17:40;;;;;;;12.17;10.53;;;11.70;99.90;;;;;;5098489;28;20180;-47
2021/08/26 03:20:06;;;;;;;11.93;10.47;;;11.70;99.90;;;;;;5099143;28;20418;-47
2021/08/26 03:22:32;;;;;;;10.40;9.30;;;11.70;99.90;;;;;;5098981;28;20188;-46
2021/08/26 03:24:58;;;;;;;11.70;9.60;;;11.70;99.90;;;;;;5098716;28;20407;-47
2021/08/26 03:27:24;;;;;;;10.77;9.77;;;11.70;99.90;;;;;;5099015;28;20226;-47
2021/08/26 03:29:49;;;;;;;14.20;10.70;;;11.70;99.90;;;;;;5098331;28;20470;-46
2021/08/26 03:32:15;;;;;;;12.67;11.37;;;11.80;99.90;;;;;;5098545;28;20220;-47
2021/08/26 03:34:41;;;;;;;10.83;9.70;;;11.80;99.90;;;;;;5098530;28;20534;-46
2021/08/26 03:37:07;;;;;;;11.97;10.10;;;11.80;99.90;;;;;;5098674;28;20495;-47
2021/08/26 03:39:33;;;;;;;13.60;11.37;;;11.90;99.90;;;;;;5097567;28;20518;-47
2021/08/26 03:41:58;;;;;;;11.10;9.90;;;11.90;99.90;;;;;;5098428;28;20212;-47
2021/08/26 03:44:24;;;;;;;12.20;10.90;;;11.90;99.90;;;;;;5098510;28;20258;-47
2021/08/26 03:46:50;;;;;;;12.30;10.30;;;11.90;99.90;;;;;;5098607;28;20173;-46
2021/08/26 03:49:16;;;;;;;12.17;10.90;;;12.00;99.90;;;;;;5096835;28;20449;-47
2021/08/26 03:51:41;;;;;;;11.18;9.98;;;12.00;99.90;;;;;;5097774;28;20242;-46
2021/08/26 03:54:07;;;;;;;12.27;11.07;;;12.00;99.90;;;;;;5097678;28;20172;-46
2021/08/26 03:56:33;;;;;;;12.20;10.80;;;12.10;99.90;;;;;;5098053;28;20165;-46
2021/08/26 03:58:58;;;;;;;14.70;11.30;;;12.10;99.90;;;;;;5098346;28;20422;-46
2021/08/26 04:01:24;;;;;;;11.93;10.40;;;12.10;99.90;;;;;;5098382;28;20505;-47
2021/08/26 04:03:50;;;;;;;11.67;10.40;;;12.10;99.90;;;;;;5097665;28;20417;-49
2021/08/26 04:06:16;;;;;;;11.33;10.13;;;12.10;99.90;;;;;;5097285;28;20176;-49
2021/08/26 04:08:41;;;;;;;13.10;10.97;;;12.10;99.90;;;;;;5097797;28;20422;-49
2021/08/26 04:11:07;;;;;;;12.97;10.67;;;12.10;99.90;;;;;;5097353;28;20230;-49
2021/08/26 04:13:33;;;;;;;12.27;10.30;;;12.10;99.90;;;;;;5096032;28;20764;-49
2021/08/26 04:15:58;;;;;;;11.97;10.77;;;12.10;99.90;;;;;;5097353;28;20173;-43
2021/08/26 04:18:24;;;;;;;11.33;10.20;;;12.10;99.90;;;;;;5097091;28;20491;-43
2021/08/26 04:20:49;;;;;;;12.03;10.43;;;12.10;99.90;;;;;;5098253;28;20251;-41
2021/08/26 04:23:15;;;;;;;13.83;11.70;;;12.10;99.90;;;;;;5097759;28;20576;-43
2021/08/26 04:25:41;;;;;;;12.52;10.50;;;12.10;99.90;;;;;;5098027;28;20854;-42
2021/08/26 04:28:07;;;;;;;13.47;11.70;;;12.10;99.90;;;;;;5097167;28;20252;-43
2021/08/26 04:30:33;;;;;;;11.70;10.17;;;12.10;99.90;;;;;;5097431;28;20410;-41
2021/08/26 04:33:01;;;;;;;12.80;11.37;;;12.10;99.90;;;;;;5097347;28;20759;-41
2021/08/26 04:35:27;;;;;;;11.70;10.47;;;12.20;99.90;;;;;;5086737;28;20723;-42
2021/08/26 04:37:53;;;;;;;12.70;11.33;;;12.10;99.90;;;;;;5085769;28;20438;-41
2021/08/26 04:40:18;;;;;;;11.87;10.50;;;12.20;99.90;;;;;;5088010;28;20506;-41
2021/08/26 04:42:46;;;;;;;15.93;12.63;;;12.20;99.90;;;;;;5083585;28;20533;-41
2021/08/26 04:45:11;;;;;;;12.90;11.60;;;12.20;99.90;;;;;;5097674;28;20178;-42
2021/08/26 04:47:37;;;;;;;15.10;12.03;;;12.20;99.90;;;;;;5087981;28;20435;-41
2021/08/26 04:50:04;;;;;;;12.37;10.93;;;12.20;99.90;;;;;;5076182;28;20177;-42
2021/08/26 04:52:30;;;;;;;13.33;11.10;;;12.30;99.90;;;;;;5076513;28;20224;-39
2021/08/26 04:54:55;;;;;;;11.77;10.47;;;12.30;99.90;;;;;;5076197;28;20506;-42
2021/08/26 04:57:22;;;;;;;14.70;10.93;;;12.30;99.90;;;;;;5075089;28;20701;-43
2021/08/26 04:59:47;;;;;;;14.73;11.30;;;12.40;99.90;;;;;;5077089;28;20418;-42
2021/08/26 05:02:13;;;;;;;13.30;10.07;;;12.40;99.90;;;;;;5016845;28;20439;-40
2021/08/26 05:04:39;;;;;;;12.43;10.60;;;12.40;99.90;;;;;;5074591;28;20411;-43
2021/08/26 05:07:04;;;;;;;12.90;10.93;;;12.50;99.90;;;;;;5074799;28;20177;-41
2021/08/26 05:09:30;;;;;;;11.70;10.50;;;12.50;99.90;;;;;;5074208;28;20597;-40
2021/08/26 05:11:58;;;;;;;12.60;11.17;;;12.50;99.90;;;;;;5075433;28;20300;-41
2021/08/26 05:14:24;;;;;;;13.38;10.90;;;12.60;99.90;;;;;;5075188;28;20582;-40
2021/08/26 05:16:49;;;;;;;12.60;11.10;;;12.70;99.90;;;;;;5074727;28;20200;-41
2021/08/26 05:19:15;;;;;;;11.50;10.30;;;12.70;99.90;;;;;;5075559;28;20682;-40
2021/08/26 05:21:41;;;;;;;11.07;9.80;;;12.80;99.90;;;;;;5074708;28;20284;-44
2021/08/26 05:24:07;;;;;;;12.90;10.70;;;12.80;99.90;;;;;;5077906;28;20534;-40
2021/08/26 05:26:32;;;;;;;11.77;10.47;;;12.90;99.90;;;;;;5076481;28;20415;-45
2021/08/26 05:28:58;;;;;;;12.70;10.10;;;13.00;99.90;;;;;;5084249;28;20240;-43
2021/08/26 05:31:24;;;;;;;11.90;10.67;;;13.10;99.90;;;;;;5094198;28;20282;-41
2021/08/26 05:33:51;;;;;;;11.53;9.97;;;13.10;99.90;;;;;;5083401;28;20867;-43
2021/08/26 05:36:17;;;;;;;13.33;9.73;;;13.20;99.90;;;;;;5084108;28;20252;-42
2021/08/26 05:38:43;;;;;;;11.90;9.90;;;13.30;99.90;;;;;;5083973;28;20520;-41
2021/08/26 05:41:08;;;;;;;14.20;10.80;;;13.30;99.90;;;;;;5084872;28;20199;-41
2021/08/26 05:43:34;;;;;;;11.73;10.20;;;13.40;99.90;;;;;;5083757;28;20451;-43
2021/08/26 05:45:59;;;;;;;11.53;10.33;;;13.50;99.90;;;;;;5083232;28;20897;-44
2021/08/26 05:48:28;;;;;;;12.97;11.03;;;13.60;99.90;;;;;;5085859;28;20219;-41
2021/08/26 05:50:54;;;;;;;11.77;10.07;;;13.70;99.90;;;;;;5085675;28;20284;-42
2021/08/26 05:53:19;;;;;;;12.90;10.50;;;13.70;99.90;;;;;;5089141;28;20778;-40
2021/08/26 05:55:47;;;;;;;12.23;10.93;;;13.80;99.90;;;;;;5094612;28;20171;-39
2021/08/26 05:58:14;;;;;;;12.43;10.60;;;13.90;99.90;;;;;;5096418;28;20271;-41
2021/08/26 06:00:40;;;;;;;10.23;9.20;;;13.90;99.90;;;;;;5079209;28;20183;-44
2021/08/26 06:03:06;;;;;;;10.50;9.50;;;14.00;99.90;;;;;;5099886;28;20490;-44
2021/08/26 06:05:32;;;;;;;12.20;10.10;;;14.10;99.90;;;;;;5100451;28;20773;-41
2021/08/26 06:07:58;;;;;;;11.43;9.97;;;14.20;99.90;;;;;;5099174;28;20226;-44
2021/08/26 06:10:24;;;;;;;11.77;9.30;;;14.30;99.90;;;;;;5096978;28;20170;-40
2021/08/26 06:12:50;;;;;;;11.37;10.10;;;14.30;99.90;;;;;;5088222;28;20569;-42
2021/08/26 06:15:16;;;;;;;12.17;10.07;;;14.40;99.90;;;;;;5079929;28;20446;-40
2021/08/26 06:17:42;;;;;;;13.43;10.80;;;14.50;99.90;;;;;;5083677;28;20451;-41
2021/08/26 06:20:11;;;;;;;14.00;10.80;;;14.60;99.90;;;;;;5091352;28;20184;-40
2021/08/26 06:22:37;;;;;;;12.40;10.50;;;14.50;99.90;;;;;;5098762;28;20433;-43
2021/08/26 06:25:04;;;;;;;12.40;10.40;;;14.60;99.90;;;;;;5097018;28;20422;-41
2021/08/26 06:27:29;;;;;;;12.90;9.90;;;14.70;99.90;;;;;;5085131;28;20446;-44
2021/08/26 06:29:55;;;;;;;11.50;8.93;;;14.70;99.80;;;;;;5079796;28;20471;-41
2021/08/26 06:32:21;;;;;;;13.30;10.97;;;14.90;99.80;;;;;;5083922;28;20475;-43
2021/08/26 06:34:46;;;;;;;10.27;8.63;;;15.00;99.90;;;;;;5088140;28;20189;-41
2021/08/26 06:37:12;;;;;;;11.80;9.37;;;15.10;99.90;;;;;;5089957;28;20228;-41
2021/08/26 06:39:38;;;;;;;13.63;10.33;;;15.20;99.90;;;;;;5095778;28;20709;-41
2021/08/26 06:42:04;;;;;;;14.43;9.47;;;15.20;99.50;;;;;;5095503;28;20538;-43
2021/08/26 06:44:30;;;;;;;12.30;10.20;;;15.20;99.00;;;;;;5089613;28;20275;-43
2021/08/26 06:46:55;;;;;;;15.27;10.27;;;15.20;98.90;;;;;;5088715;28;20254;-43
2021/08/26 06:49:22;;;;;;;12.77;9.80;;;15.10;98.70;;;;;;5084856;28;20185;-44
2021/08/26 06:51:49;;;;;;;11.87;10.67;;;15.10;98.90;;;;;;5082439;28;20465;-42
2021/08/26 06:54:14;;;;;;;12.77;9.57;;;15.20;99.50;;;;;;5088040;28;20415;-41
2021/08/26 06:56:40;;;;;;;10.90;9.40;;;15.20;99.10;;;;;;5089878;28;20418;-43
2021/08/26 06:59:06;;;;;;;11.50;10.30;;;15.20;99.00;;;;;;5089785;28;20185;-43
2021/08/26 07:01:33;;;;;;;11.88;10.50;;;15.20;98.90;;;;;;5087358;28;20415;-43
2021/08/26 07:03:59;;;;;;;10.10;9.10;;;15.20;98.90;;;;;;5090393;28;20176;-41
2021/08/26 07:06:26;;;;;;;11.20;10.00;;;15.20;98.80;;;;;;5091054;28;20406;-43
2021/08/26 07:08:52;;;;;;;10.53;9.13;;;15.20;98.90;;;;;;5087120;28;20458;-42
2021/08/26 07:11:18;;;;;;;13.60;9.57;;;15.20;98.90;;;;;;5089670;28;20550;-42
2021/08/26 07:13:44;;;;;;;11.50;9.37;;;15.20;98.90;;;;;;5087192;28;20174;-41
2021/08/26 07:16:10;;;;;;;12.00;9.70;;;15.30;98.90;;;;;;5089375;28;20498;-41
2021/08/26 07:18:35;;;;;;;13.87;12.47;;;15.30;98.90;;;;;;5098056;28;20280;-41
2021/08/26 07:21:02;;;;;;;13.80;10.33;;;15.30;98.90;;;;;;5097616;28;20407;-42
2021/08/26 07:23:28;;;;;;;12.60;11.30;;;15.30;98.70;;;;;;5094821;28;20183;-42
2021/08/26 07:25:54;;;;;;;12.40;10.47;;;15.30;98.90;;;;;;5087332;28;20431;-42
2021/08/26 07:28:19;;;;;;;12.20;10.87;;;15.30;98.80;;;;;;5088111;28;20208;-41
2021/08/26 07:30:45;;;;;;;13.53;11.10;;;15.30;98.70;;;;;;5078742;28;20441;-44
2021/08/26 07:33:11;;;;;;;13.87;12.33;;;15.20;98.80;;;;;;5074653;28;20187;-43
2021/08/26 07:35:36;;;;;;;12.63;10.67;;;15.20;98.70;;;;;;5075638;28;20523;-42
2021/08/26 07:38:02;;;;;;;12.57;10.90;;;15.20;98.70;;;;;;5074556;28;20825;-43
2021/08/26 07:40:28;;;;;;;14.53;11.30;;;15.10;98.70;;;;;;5076344;28;20427;-42
2021/08/26 07:42:54;;;;;;;11.87;10.67;;;15.20;98.80;;;;;;5075503;28;20542;-40
2021/08/26 07:45:20;;;;;;;11.13;9.97;;;15.20;98.70;;;;;;5076080;28;20275;-41
2021/08/26 07:47:45;;;;;;;15.00;11.20;;;15.30;98.80;;;;;;5084199;28;20650;-44
2021/08/26 07:50:11;;;;;;;13.63;11.43;;;15.50;98.60;;;;;;5096734;28;20411;-41
2021/08/26 07:52:37;;;;;;;11.27;9.90;;;15.60;98.50;;;;;;5096331;28;20307;-44
2021/08/26 07:55:06;;;;;;;14.40;11.13;;;15.80;98.40;;;;;;5095500;28;20599;-45
2021/08/26 07:57:32;;;;;;;13.17;11.60;;;15.90;98.20;;;;;;5097115;28;20176;-41
2021/08/26 07:59:58;;;;;;;11.60;10.40;;;16.00;97.70;;;;;;5096414;28;20494;-40
2021/08/26 08:02:24;;;;;;;11.40;10.00;;;16.00;97.40;;;;;;5077685;28;20599;-40
2021/08/26 08:04:50;;;;;;;11.90;9.50;;;16.10;97.40;;;;;;5095719;28;20414;-41
2021/08/26 08:07:16;;;;;;;14.65;9.90;;;16.20;97.50;;;;;;5095425;28;20427;-44
2021/08/26 08:09:41;;;;;;;13.80;11.43;;;16.30;97.40;;;;;;5095549;28;20173;-41
2021/08/26 08:12:07;;;;;;;9.90;8.87;;;16.40;97.60;;;;;;5095178;28;20510;-41
2021/08/26 08:14:33;;;;;;;14.70;11.40;;;16.60;97.40;;;;;;5096123;28;20172;-42
2021/08/26 08:16:59;;;;;;;12.20;10.53;;;16.50;96.80;;;;;;5096359;28;20184;-46
2021/08/26 08:19:25;;;;;;;12.87;10.53;;;16.60;96.70;;;;;;5096523;28;20410;-41
2021/08/26 08:21:51;;;;;;;12.60;11.23;;;16.90;96.30;;;;;;5097390;28;20411;-43
2021/08/26 08:24:17;;;;;;;13.93;12.20;;;16.90;95.60;;;;;;5096113;28;20417;-41
2021/08/26 08:26:43;;;;;;;12.00;10.70;;;17.00;95.10;;;;;;5095583;28;20809;-44
2021/08/26 08:29:09;;;;;;;14.07;12.27;;;17.10;95.00;;;;;;5095911;28;20530;-41
2021/08/26 08:31:34;;;;;;;16.83;14.70;;;16.90;95.40;;;;;;5096888;28;20204;-40
2021/08/26 08:34:00;;;;;;;16.07;14.40;;;16.70;95.50;;;;;;5097318;28;20164;-50
2021/08/26 08:36:26;;;;;;;18.27;13.13;;;16.60;95.80;;;;;;5096869;28;20176;-41
2021/08/26 08:38:52;;;;;;;14.50;12.80;;;16.60;96.00;;;;;;5095874;28;20184;-43
2021/08/26 08:41:20;;;;;;;15.90;12.80;;;16.70;96.20;;;;;;5093879;28;20490;-43
2021/08/26 08:43:46;;;;;;;13.83;12.33;;;16.60;96.40;;;;;;5094025;28;20743;-41
2021/08/26 08:46:12;;;;;;;15.17;13.47;;;16.40;96.80;;;;;;5094381;28;20449;-41
2021/08/26 08:48:42;;;;;;;15.13;12.20;;;16.30;97.10;;;;;;5094083;28;20473;-41
2021/08/26 08:51:10;;;;;;;14.60;13.30;;;16.20;97.60;;;;;;5096950;28;20520;-41
2021/08/26 08:53:36;;;;;;;12.40;11.23;;;16.20;97.20;;;;;;5096060;28;20443;-40
2021/08/26 08:56:07;;;;;;;16.30;14.07;;;16.30;97.40;;;;;;5083573;28;20431;-44
2021/08/26 08:58:38;;;;;;;16.03;14.50;;;16.40;97.30;;;;;;5094551;28;20430;-44
2021/08/26 09:01:04;;;;;;;17.17;13.93;;;16.40;97.40;;;;;;5095099;28;20448;-41
2021/08/26 09:03:30;;;;;;;16.23;14.30;;;16.30;97.40;;;;;;5091037;28;20445;-43
2021/08/26 09:05:59;;;;;;;18.90;15.90;;;16.30;97.70;;;;;;5082609;28;20439;-41
2021/08/26 09:08:27;;;;;;;18.00;16.20;;;16.30;98.30;;;;;;5088550;28;20891;-41
2021/08/26 09:10:55;;;;;;;16.30;14.70;;;16.30;99.00;;;;;;5088518;28;20434;-41
2021/08/26 09:13:29;;;;;;;17.20;15.50;;;16.30;99.60;;;;;;5081675;28;20439;-42
2021/08/26 09:15:55;;;;;;;17.03;15.27;;;16.40;99.90;;;;;;5075878;28;20410;-42
2021/08/26 09:18:21;;;;;;;17.47;15.80;;;16.40;99.90;;;;;;5078219;28;20707;-43
2021/08/26 09:20:53;;;;;;;18.30;16.50;;;16.40;99.90;;;;;;5094727;28;20499;-41
2021/08/26 09:23:20;;;;;;;17.77;15.90;;;16.50;99.90;;;;;;5096502;28;20546;-41
2021/08/26 09:25:47;;;;;;;15.97;14.33;;;16.50;99.90;;;;;;5091691;28;20438;-45
2021/08/26 09:28:26;;;;;;;17.87;16.23;;;16.50;99.90;;;;;;5075547;28;20486;-40
2021/08/26 09:31:19;;;;;;;16.67;14.87;;;16.60;99.90;;;;;;5075409;28;20419;-45
2021/08/26 09:34:04;;;;;;;17.23;15.47;;;16.60;99.90;;;;;;5075809;28;20438;-43
2021/08/26 09:36:32;;;;;;;19.10;17.20;;;16.40;99.90;;;;;;5083763;28;20502;-43
2021/08/26 09:39:12;;;;;;;16.75;15.15;;;16.50;99.90;;;;;;5100317;28;20737;-41
2021/08/26 09:41:48;;;;;;;16.97;15.30;;;16.50;99.90;;;;;;5099884;28;20183;-43
2021/08/26 09:44:19;;;;;;;18.97;17.17;;;16.30;99.90;;;;;;5101577;28;20420;-42
2021/08/26 09:46:50;;;;;;;17.23;15.70;;;16.30;99.90;;;;;;5099457;28;20513;-42
2021/08/26 09:49:21;;;;;;;19.77;17.97;;;16.20;99.90;;;;;;5081881;28;20426;-41
2021/08/26 09:52:11;;;;;;;20.77;18.88;;;16.30;99.90;;;;;;5097850;28;20535;-42
2021/08/26 09:54:44;;;;;;;20.63;18.50;;;15.80;99.90;;;;;;5090435;28;20181;-41
2021/08/26 09:57:25;;;;;;;21.37;19.37;;;15.50;99.90;;;;;;5097774;28;20422;-41
2021/08/26 09:59:53;;;;;;;18.23;16.52;;;15.30;99.90;;;;;;5098539;28;20420;-42
2021/08/26 10:02:20;;;;;;;17.40;15.80;;;15.50;99.90;;;;;;5099656;28;20176;-42
2021/08/26 10:04:46;;;;;;;18.30;16.70;;;15.50;99.90;;;;;;5099284;28;20489;-41
2021/08/26 10:07:13;;;;;;;19.20;17.20;;;15.60;99.90;;;;;;5099594;28;20533;-42
2021/08/26 10:09:41;;;;;;;17.13;15.63;;;15.60;99.90;;;;;;5099736;28;20423;-39
2021/08/26 10:12:11;;;;;;;17.67;16.20;;;15.60;99.90;;;;;;5098563;28;20204;-39
2021/08/26 10:14:37;;;;;;;17.60;16.00;;;15.60;99.90;;;;;;5099116;28;20403;-40
2021/08/26 10:17:03;;;;;;;16.27;14.87;;;15.40;99.90;;;;;;5099737;28;20460;-41
2021/08/26 10:19:30;;;;;;;15.43;14.03;;;15.30;99.90;;;;;;5099348;28;20411;-40
2021/08/26 10:21:56;;;;;;;13.53;12.23;;;15.40;99.90;;;;;;5098715;28;20461;-42
2021/08/26 10:24:22;;;;;;;17.80;16.20;;;14.80;99.90;;;;;;5096682;28;20407;-43
2021/08/26 10:26:51;;;;;;;10.97;10.07;;;14.70;99.90;;;;;;5096566;28;20413;-43
2021/08/26 10:29:18;;;;;;;8.97;8.17;;;14.80;99.90;;;;;;5096933;28;20764;-40
2021/08/26 10:31:55;;;;;;;4.70;4.30;;;15.00;99.90;;;;;;5098384;28;20526;-44
2021/08/26 10:34:23;;;;;;;5.30;3.20;;;15.20;99.90;;;;;;5099453;28;20496;-41
2021/08/26 10:36:55;;;;;;;4.50;4.10;;;15.20;99.90;;;;;;5097841;28;20506;-41
2021/08/26 10:39:41;;;;;;;4.17;3.87;;;15.20;99.90;;;;;;5099645;28;20405;-42
2021/08/26 10:42:32;;;;;;;2.70;2.50;;;15.30;99.90;;;;;;5099172;28;20454;-41
2021/08/26 10:45:05;;;;;;;3.43;2.60;;;15.50;99.90;;;;;;5099849;28;20415;-40
2021/08/26 10:47:49;;;;;;;4.40;2.40;;;15.80;99.90;;;;;;5098486;28;20460;-40
2021/08/26 10:50:28;;;;;;;2.17;1.97;;;15.70;99.90;;;;;;5099328;28;20417;-39
2021/08/26 10:52:58;;;;;;;4.43;4.07;;;15.80;99.90;;;;;;5099363;28;20782;-42
2021/08/26 10:55:46;;;;;;;5.88;4.20;;;15.70;99.90;;;;;;5098771;28;20794;-41
2021/08/26 10:58:20;;;;;;;5.00;4.50;;;15.60;99.90;;;;;;5097834;28;20172;-41
2021/08/26 11:01:00;;;;;;;6.97;5.43;;;15.60;99.90;;;;;;5097718;28;20840;-42
2021/08/26 11:03:35;;;;;;;7.00;5.97;;;15.80;99.90;;;;;;5098231;28;20514;-40
2021/08/26 11:06:22;;;;;;;6.80;6.20;;;16.10;99.90;;;;;;5097677;28;20418;-41
2021/08/26 11:08:48;;;;;;;8.73;6.63;;;16.40;99.90;;;;;;5098584;28;20419;-40
2021/08/26 11:11:32;;;;;;;7.67;6.97;;;16.60;99.40;;;;;;5097969;28;20788;-41
2021/08/26 11:14:03;;;;;;;10.27;6.73;;;16.90;98.90;;;;;;5097684;28;20419;-41
2021/08/26 11:16:29;;;;;;;8.50;7.60;;;17.30;99.10;;;;;;5098045;28;20838;-40
2021/08/26 11:19:15;;;;;;;6.87;5.30;;;18.20;97.90;;;;;;5097439;28;20288;-43
2021/08/26 11:21:41;;;;;;;6.77;5.80;;;19.80;96.60;;;;;;5097721;28;20237;-40
2021/08/26 11:24:13;;;;;;;7.15;6.15;;;21.40;94.00;;;;;;5098663;28;20742;-44
2021/08/26 11:27:06;;;;;;;7.47;6.07;;;22.10;90.60;;;;;;5097954;28;20271;-41
2021/08/26 11:29:33;;;;;;;7.00;5.63;;;22.20;88.20;;;;;;5098598;28;20488;-41
2021/08/26 11:32:03;;;;;;;7.63;6.30;;;22.60;87.50;;;;;;5098960;28;20858;-44
2021/08/26 11:34:40;;;;;;;10.10;7.00;;;22.70;87.10;;;;;;5097289;28;20828;-39
2021/08/26 11:37:07;;;;;;;7.83;7.03;;;22.20;86.70;;;;;;5096258;28;20468;-41
2021/08/26 11:39:55;;;;;;;8.63;7.10;;;22.60;87.90;;;;;;5096526;28;20838;-39
2021/08/26 11:42:20;;;;;;;7.60;6.80;;;23.10;83.10;;;;;;5084930;28;20438;-39
2021/08/26 11:45:10;;;;;;;7.57;6.47;;;22.10;82.80;;;;;;5097382;28;20416;-38
2021/08/26 11:47:39;;;;;;;6.45;5.85;;;21.80;83.60;;;;;;5097051;28;20241;-41
2021/08/26 11:50:19;;;;;;;7.23;6.53;;;22.90;83.70;;;;;;5096795;28;20172;-42
2021/08/26 11:52:48;;;;;;;8.30;7.13;;;23.70;79.20;;;;;;5096214;28;20534;-41
2021/08/26 11:55:14;;;;;;;7.33;5.50;;;22.80;76.90;;;;;;5096001;28;20414;-40
2021/08/26 11:57:41;;;;;;;6.63;5.93;;;22.80;77.60;;;;;;5095582;28;20441;-40
2021/08/26 12:00:10;;;;;;;7.10;5.80;;;23.30;77.90;;;;;;5096981;28;20682;-40
2021/08/26 12:02:36;;;;;;;8.30;5.43;;;23.50;75.60;;;;;;5079360;28;20446;-40
2021/08/26 12:05:04;;;;;;;7.47;5.83;;;23.20;74.30;;;;;;5096923;28;20440;-41
2021/08/26 12:07:33;;;;;;;5.80;5.30;;;22.90;74.90;;;;;;5095981;28;20422;-39
2021/08/26 12:10:12;;;;;;;8.67;6.10;;;22.70;75.30;;;;;;5097725;28;20414;-42
2021/08/26 12:13:08;;;;;;;7.80;6.10;;;21.50;76.20;;;;;;5097680;28;20470;-42
2021/08/26 12:15:41;;;;;;;6.80;5.70;;;20.70;77.60;;;;;;5097053;28;20411;-40
2021/08/26 12:18:14;;;;;;;7.55;5.47;;;20.60;80.30;;;;;;5098148;28;20874;-38
2021/08/26 12:20:52;;;;;;;6.50;5.43;;;20.80;82.00;;;;;;5095906;28;20535;-39
2021/08/26 12:23:23;;;;;;;7.17;5.93;;;21.30;80.30;;;;;;5097892;28;20672;-41
2021/08/26 12:26:10;;;;;;;6.63;6.03;;;21.70;78.10;;;;;;5097985;28;20962;-41
2021/08/26 12:28:42;;;;;;;6.13;5.33;;;22.00;78.60;;;;;;5097527;28;20565;-40
2021/08/26 12:31:13;;;;;;;7.27;5.90;;;22.00;76.80;;;;;;5097146;28;20415;-39
2021/08/26 12:33:55;;;;;;;5.23;4.40;;;21.70;75.90;;;;;;5097512;28;20701;-40
2021/08/26 12:36:21;;;;;;;6.40;5.63;;;21.40;77.10;;;;;;5097526;28;20414;-40
2021/08/26 12:38:46;;;;;;;6.60;5.27;;;21.00;77.70;;;;;;5097048;28;20430;-41
2021/08/26 12:41:17;;;;;;;5.83;5.23;;;20.70;78.40;;;;;;5097066;28;20262;-39